Time;durP1;ratioP1;P1;durP2;ratioP2;P2;SDS_P1;SDS_P2;PMS_P1;PMS_P2;Temp;Humidity;BMP_temperature;BMP_pressure;BME280_temperature;BME280_humidity;BME280_pressure;Samples;Min_cycle;Max_cycle;Signal;HPM_P1;HPM_P2
2022/09/02 00:01:28;;;;;;;22.27;15.43;;;;;;;22.92;100.00;98724.03;4980243;28;20196;-86
2022/09/02 00:04:00;;;;;;;21.43;15.80;;;;;;;23.65;100.00;98857.13;4994574;28;20653;-86
2022/09/02 00:06:26;;;;;;;23.90;15.63;;;;;;;21.07;100.00;98441.53;5012336;28;20648;-85
2022/09/02 00:08:52;;;;;;;20.77;15.27;;;;;;;21.45;100.00;98487.34;5012358;28;20581;-86
2022/09/02 00:11:21;;;;;;;22.70;16.30;;;;;;;23.73;100.00;98875.97;5008592;28;20183;-86
2022/09/02 00:13:46;;;;;;;20.33;15.30;;;;;;;23.29;100.00;98788.81;4992534;28;20167;-86
2022/09/02 00:16:13;;;;;;;21.17;15.90;;;;;;;23.71;100.00;98879.44;4994960;28;20171;-85
2022/09/02 00:18:38;;;;;;;21.03;15.77;;;;;;;23.66;100.00;98845.06;5005670;28;20560;-85
2022/09/02 00:21:04;;;;;;;21.77;16.00;;;;;;;21.25;100.00;98446.44;4995891;28;20187;-86
2022/09/02 00:23:30;;;;;;;21.53;15.73;;;;;;;22.97;100.00;98747.19;4995814;28;20182;-85
2022/09/02 00:25:55;;;;;;;20.87;15.43;;;;;;;21.70;100.00;98504.97;4996478;28;20168;-86
2022/09/02 00:28:21;;;;;;;20.83;16.27;;;;;;;22.45;100.00;98638.75;5002702;28;20174;-86
2022/09/02 00:30:46;;;;;;;21.43;16.17;;;;;;;21.81;100.00;98484.19;5015913;28;20163;-86
2022/09/02 00:33:12;;;;;;;20.50;15.93;;;;;;;22.61;100.00;98621.28;5015681;28;20280;-85
2022/09/02 00:35:38;;;;;;;21.83;15.90;;;;;;;20.67;100.00;98302.25;5015600;28;20167;-86
2022/09/02 00:38:04;;;;;;;22.83;15.80;;;;;;;24.03;100.00;98854.69;4993640;28;20670;-85
2022/09/02 00:40:31;;;;;;;24.47;15.67;;;;;;;24.01;100.00;98856.47;4995929;28;20801;-85
2022/09/02 00:42:56;;;;;;;20.77;15.77;;;;;;;23.47;100.00;98787.69;4996795;28;20163;-86
2022/09/02 00:45:22;;;;;;;20.67;15.83;;;;;;;22.54;100.00;98638.63;4996813;28;20174;-87
2022/09/02 00:47:50;;;;;;;19.80;15.70;;;;;;;19.88;100.00;98176.53;4999696;28;20242;-84
2022/09/02 00:50:22;;;;;;;20.87;15.93;;;;;;;22.34;100.00;98620.88;5018769;28;20159;-85
2022/09/02 00:52:55;;;;;;;19.90;15.47;;;;;;;23.40;100.00;98786.09;5016278;28;20213;-86
2022/09/02 00:55:27;;;;;;;19.57;15.40;;;;;;;24.05;100.00;98854.69;4998814;28;20614;-86
2022/09/02 00:57:58;;;;;;;21.23;15.03;;;;;;;21.58;100.00;98456.25;5014085;28;20641;-85
2022/09/02 01:00:27;;;;;;;21.60;15.67;;;;;;;23.95;100.00;98854.00;4996030;28;20191;-87
2022/09/02 01:03:00;;;;;;;21.07;15.33;;;;;;;22.02;100.00;98501.94;4997376;28;20170;-87
2022/09/02 01:05:28;;;;;;;20.97;15.20;;;;;;;23.83;100.00;98823.22;4996700;28;20172;-86
2022/09/02 01:07:55;;;;;;;19.13;15.83;;;;;;;22.08;100.00;98499.28;5011977;28;20178;-86
2022/09/02 01:10:28;;;;;;;22.27;16.20;;;;;;;22.00;100.00;98505.44;5015913;28;20155;-86
2022/09/02 01:12:57;;;;;;;23.53;16.20;;;;;;;22.37;100.00;98557.22;4999399;28;20171;-91
2022/09/02 01:15:24;;;;;;;23.60;16.70;;;;;;;22.11;100.00;98548.19;5015469;28;20159;-87
2022/09/02 01:17:51;;;;;;;22.80;16.47;;;;;;;20.65;100.00;98291.16;5000109;28;20210;-87
2022/09/02 01:20:21;;;;;;;23.83;16.03;;;;;;;23.82;100.00;98837.00;4995011;28;20266;-86
2022/09/02 01:22:47;;;;;;;21.03;15.60;;;;;;;23.78;100.00;98840.53;4995297;28;20619;-87
2022/09/02 01:25:21;;;;;;;21.97;15.60;;;;;;;23.25;100.00;98752.75;5001989;28;20174;-86
2022/09/02 01:27:48;;;;;;;19.50;14.70;;;;;;;23.86;100.00;98841.25;5014672;28;20189;-85
2022/09/02 01:30:18;;;;;;;21.43;15.33;;;;;;;23.79;100.00;98843.94;5014896;28;20578;-85
2022/09/02 01:32:43;;;;;;;21.77;15.20;;;;;;;22.37;100.00;98603.66;5014687;28;20244;-85
2022/09/02 01:35:10;;;;;;;20.93;14.50;;;;;;;23.80;100.00;98840.50;5007869;28;20683;-86
2022/09/02 01:37:37;;;;;;;20.53;14.03;;;;;;;22.92;100.00;98681.88;4994996;28;20179;-87
2022/09/02 01:40:05;;;;;;;19.53;14.10;;;;;;;22.75;100.00;98634.84;4977331;28;20260;-87
2022/09/02 01:42:30;;;;;;;18.70;14.07;;;;;;;23.15;100.00;98712.47;4994692;28;20175;-86
2022/09/02 01:44:56;;;;;;;21.70;14.33;;;;;;;22.56;100.00;98647.19;4998958;28;20170;-87
2022/09/02 01:47:24;;;;;;;20.97;14.33;;;;;;;22.97;100.00;98728.25;5014100;28;20182;-86
2022/09/02 01:49:50;;;;;;;21.07;14.23;;;;;;;23.69;100.00;98853.63;5014569;28;20183;-86
2022/09/02 01:52:17;;;;;;;21.07;14.90;;;;;;;23.12;100.00;98777.06;5014183;28;20183;-86
2022/09/02 01:54:43;;;;;;;18.00;14.27;;;;;;;21.97;100.00;98591.38;5012663;28;20238;-86
2022/09/02 01:57:09;;;;;;;20.67;14.10;;;;;;;23.31;100.00;98833.56;4997368;28;20613;-86
2022/09/02 01:59:35;;;;;;;21.87;14.60;;;;;;;23.58;100.00;98840.03;4982430;28;20179;-87
2022/09/02 02:02:00;;;;;;;22.33;14.63;;;;;;;22.08;100.00;98580.91;5000459;28;20163;-87
2022/09/02 02:04:26;;;;;;;23.83;14.20;;;;;;;22.71;100.00;98670.19;4999041;28;20198;-87
2022/09/02 02:06:51;;;;;;;22.17;14.30;;;;;;;21.44;100.00;98494.22;5022548;28;20626;-86
2022/09/02 02:09:18;;;;;;;22.47;14.30;;;;;;;23.59;100.00;98838.31;5005820;28;20171;-88
2022/09/02 02:11:44;;;;;;;19.00;14.27;;;;;;;22.89;100.00;98726.66;5019536;28;20163;-87
2022/09/02 02:14:10;;;;;;;22.27;15.40;;;;;;;21.99;100.00;98592.22;5018065;28;20166;-87
2022/09/02 02:16:36;;;;;;;20.77;14.53;;;;;;;21.45;100.00;98495.91;4999086;28;20262;-87
2022/09/02 02:19:02;;;;;;;21.53;15.43;;;;;;;23.63;100.00;98847.69;4997050;28;20186;-86
2022/09/02 02:21:27;;;;;;;24.40;14.57;;;;;;;21.70;100.00;98535.91;4997938;28;20231;-86
2022/09/02 02:23:53;;;;;;;20.87;14.70;;;;;;;22.31;100.00;98630.38;4996548;28;20163;-86
2022/09/02 02:26:19;;;;;;;20.63;13.87;;;;;;;22.35;100.00;98619.16;5009282;28;20186;-86
2022/09/02 02:28:44;;;;;;;20.30;14.50;;;;;;;21.81;100.00;98485.94;4996649;28;20189;-87
2022/09/02 02:31:11;;;;;;;19.90;14.43;;;;;;;23.20;100.00;98749.38;5016508;28;20229;-87
2022/09/02 02:33:37;;;;;;;20.70;14.30;;;;;;;21.31;100.00;98459.22;4993855;28;20211;-87
2022/09/02 02:36:05;;;;;;;19.43;14.10;;;;;;;23.72;100.00;98835.47;4996058;28;20307;-86
2022/09/02 02:38:33;;;;;;;26.20;15.33;;;;;;;22.83;100.00;98692.34;4976672;28;20167;-87
2022/09/02 02:40:59;;;;;;;22.43;14.37;;;;;;;21.34;100.00;98435.16;4993935;28;20195;-86
2022/09/02 02:43:25;;;;;;;20.17;14.33;;;;;;;23.86;100.00;98836.06;4997127;28;20181;-87
2022/09/02 02:45:51;;;;;;;23.23;14.60;;;;;;;23.72;100.00;98832.88;5013345;28;20174;-86
2022/09/02 02:48:16;;;;;;;20.30;14.40;;;;;;;22.17;100.00;98580.75;5013566;28;20163;-85
2022/09/02 02:50:43;;;;;;;23.47;14.30;;;;;;;23.55;100.00;98829.75;5017196;28;20516;-86
2022/09/02 02:53:08;;;;;;;24.03;14.53;;;;;;;23.34;100.00;98812.00;5013429;28;20177;-88
2022/09/02 02:55:34;;;;;;;20.30;14.83;;;;;;;23.39;100.00;98823.13;4993187;28;20168;-86
2022/09/02 02:58:00;;;;;;;23.47;14.73;;;;;;;21.20;100.00;98439.66;4994236;28;20677;-87
2022/09/02 03:00:28;;;;;;;20.53;14.47;;;;;;;21.74;100.00;98518.69;4992869;28;20205;-86
2022/09/02 03:03:03;;;;;;;20.77;15.30;;;;;;;21.96;100.00;98555.31;4994457;28;20250;-87
2022/09/02 03:05:29;;;;;;;20.93;14.13;;;;;;;23.30;100.00;98826.69;4994137;28;20698;-88
2022/09/02 03:07:55;;;;;;;21.00;14.53;;;;;;;22.98;100.00;98727.38;4995591;28;20186;-85
2022/09/02 03:10:22;;;;;;;20.50;14.53;;;;;;;23.38;100.00;98774.91;4993317;28;20175;-87
2022/09/02 03:12:48;;;;;;;21.63;14.33;;;;;;;21.77;100.00;98529.78;4992688;28;20616;-85
2022/09/02 03:15:16;;;;;;;22.90;14.70;;;;;;;23.38;100.00;98826.59;4993811;28;20258;-88
2022/09/02 03:17:48;;;;;;;21.07;14.10;;;;;;;21.81;100.00;98548.63;4995565;28;20171;-88
2022/09/02 03:20:16;;;;;;;20.33;14.30;;;;;;;20.23;100.00;98320.81;4994505;28;20206;-88
2022/09/02 03:22:42;;;;;;;21.77;14.20;;;;;;;;;;4977909;28;20171;-88
2022/09/02 03:25:10;;;;;;;21.73;14.33;;;;;;;22.53;100.00;98696.25;5010293;28;20697;-84
2022/09/02 03:27:43;;;;;;;21.37;14.43;;;;;;;21.14;100.00;98466.31;5013326;28;20167;-86
2022/09/02 03:30:12;;;;;;;17.37;13.63;;;;;;;22.46;100.00;98653.38;5013404;28;20159;-88
2022/09/02 03:32:37;;;;;;;23.03;14.37;;;;;;;21.09;100.00;98443.22;4993753;28;20512;-86
2022/09/02 03:35:06;;;;;;;19.67;13.67;;;;;;;23.50;100.00;98805.72;4991391;28;20179;-87
2022/09/02 03:37:32;;;;;;;22.87;14.67;;;;;;;19.43;100.00;98140.28;4993365;28;20172;-87
2022/09/02 03:39:57;;;;;;;19.10;14.17;;;;;;;23.66;100.00;98834.72;4985548;28;20747;-87
2022/09/02 03:42:23;;;;;;;21.47;14.03;;;;;;;21.76;100.00;98512.63;5012483;28;20590;-86
2022/09/02 03:44:48;;;;;;;18.30;14.00;;;;;;;21.99;100.00;98611.97;5012989;28;20166;-85
2022/09/02 03:47:16;;;;;;;21.20;13.67;;;;;;;23.38;100.00;98829.16;5012753;28;20224;-86
2022/09/02 03:49:41;;;;;;;19.17;13.87;;;;;;;22.09;100.00;98634.16;5005396;28;20179;-86
2022/09/02 03:52:07;;;;;;;19.87;14.90;;;;;;;21.78;100.00;98600.22;4996310;28;20167;-86
2022/09/02 03:54:32;;;;;;;20.40;14.87;;;;;;;21.72;100.00;98605.47;4979484;28;20176;-86
2022/09/02 03:56:58;;;;;;;19.80;14.30;;;;;;;21.22;100.00;98536.56;4979180;28;20163;-86
2022/09/02 03:59:23;;;;;;;19.03;14.37;;;;;;;23.11;100.00;98827.00;5000307;28;20230;-87
2022/09/02 04:01:50;;;;;;;21.87;14.60;;;;;;;21.85;100.00;98593.25;5016186;28;20329;-86
2022/09/02 04:04:18;;;;;;;21.30;14.97;;;;;;;23.38;100.00;98842.09;5015557;28;20209;-86
2022/09/02 04:06:43;;;;;;;22.47;14.43;;;;;;;20.32;100.00;98330.16;5017309;28;20174;-86
2022/09/02 04:09:09;;;;;;;22.33;14.60;;;;;;;20.64;100.00;98383.75;4999191;28;20202;-87
2022/09/02 04:11:35;;;;;;;23.00;14.73;;;;;;;21.24;100.00;98534.81;4982415;28;20647;-88
2022/09/02 04:14:01;;;;;;;20.57;14.40;;;;;;;23.36;100.00;98851.56;5012629;28;20187;-87
2022/09/02 04:16:27;;;;;;;21.80;14.53;;;;;;;23.15;100.00;98797.69;4972315;28;20642;-87
2022/09/02 04:18:55;;;;;;;19.63;13.80;;;;;;;20.22;100.00;98306.25;5015461;28;20337;-88
2022/09/02 04:21:22;;;;;;;21.33;13.93;;;;;;;23.38;100.00;98853.28;5015286;28;20206;-88
2022/09/02 04:23:48;;;;;;;20.53;14.23;;;;;;;23.32;100.00;98858.50;4998811;28;20186;-87
2022/09/02 04:26:16;;;;;;;24.20;13.80;;;;;;;23.43;100.00;98858.41;5004042;28;20183;-87
2022/09/02 04:28:41;;;;;;;20.83;14.27;;;;;;;22.79;100.00;98805.13;5015952;28;20222;-86
2022/09/02 04:31:11;;;;;;;22.17;14.67;;;;;;;22.02;100.00;98709.88;4997020;28;20566;-88
2022/09/02 04:33:37;;;;;;;21.90;14.13;;;;;;;22.98;100.00;98816.03;4994174;28;20222;-89
2022/09/02 04:36:07;;;;;;;19.83;14.17;;;;;;;22.51;100.00;98741.00;4994991;28;20194;-87
2022/09/02 04:38:34;;;;;;;21.40;13.60;;;;;;;22.53;100.00;98724.63;4992798;28;20278;-84
2022/09/02 04:41:00;;;;;;;21.27;13.97;;;;;;;22.58;100.00;98740.06;4977468;28;20208;-85
2022/09/02 04:43:25;;;;;;;18.60;13.80;;;;;;;22.74;100.00;98754.47;4974723;28;20266;-85
2022/09/02 04:45:50;;;;;;;22.70;14.07;;;;;;;23.45;100.00;98880.75;4973278;28;20196;-85
2022/09/02 04:48:17;;;;;;;20.03;13.53;;;;;;;23.13;100.00;98845.94;4983268;28;20237;-85
2022/09/02 04:50:44;;;;;;;18.10;13.53;;;;;;;21.83;100.00;98619.03;4993873;28;20191;-85
2022/09/02 04:53:10;;;;;;;23.00;13.87;;;;;;;22.22;100.00;98693.25;4995043;28;20627;-85
2022/09/02 04:55:39;;;;;;;20.00;13.97;;;;;;;23.56;100.00;98884.88;4994973;28;20669;-85
2022/09/02 04:58:04;;;;;;;22.30;13.80;;;;;;;23.09;100.00;98777.13;4993879;28;20191;-85
2022/09/02 05:00:30;;;;;;;22.17;13.63;;;;;;;23.16;100.00;98773.53;4994211;28;20219;-84
2022/09/02 05:02:55;;;;;;;24.67;14.13;;;;;;;22.04;100.00;98551.75;4994923;28;20217;-85
2022/09/02 05:05:21;;;;;;;20.37;13.43;;;;;;;23.59;100.00;98830.56;4995241;28;20230;-86
2022/09/02 05:07:47;;;;;;;19.77;13.60;;;;;;;23.40;100.00;98805.00;4993684;28;20194;-87
2022/09/02 05:10:13;;;;;;;20.10;14.00;;;;;;;23.48;100.00;98812.66;4994154;28;20191;-87
2022/09/02 05:12:40;;;;;;;20.73;13.87;;;;;;;23.97;100.00;98882.41;4993247;28;20176;-85
2022/09/02 05:15:07;;;;;;;23.13;14.67;;;;;;;23.47;100.00;98785.97;4992518;28;20183;-86
2022/09/02 05:17:34;;;;;;;19.47;14.30;;;;;;;23.38;100.00;98769.75;4982346;28;20235;-84
2022/09/02 05:20:00;;;;;;;22.83;14.70;;;;;;;23.65;100.00;98822.69;4993478;28;20224;-84
2022/09/02 05:22:28;;;;;;;18.07;13.60;;;;;;;23.83;100.00;98846.47;4993929;28;20183;-84
2022/09/02 05:24:54;;;;;;;17.10;14.40;;;;;;;23.33;100.00;98754.31;4994160;28;20183;-84
2022/09/02 05:27:22;;;;;;;20.33;14.17;;;;;;;23.97;100.00;98885.00;4994722;28;20218;-83
2022/09/02 05:29:48;;;;;;;21.40;14.80;;;;;;;24.02;100.00;98858.19;4993762;28;20211;-83
2022/09/02 05:32:13;;;;;;;21.27;14.30;;;;;;;24.23;100.00;98879.38;4994727;28;20246;-83
2022/09/02 05:34:39;;;;;;;22.03;14.23;;;;;;;24.15;100.00;98887.28;5011712;28;20652;-84
2022/09/02 05:37:04;;;;;;;19.93;14.50;;;;;;;24.06;100.00;98833.94;5014518;28;20197;-84
2022/09/02 05:39:30;;;;;;;22.37;15.13;;;;;;;24.26;100.00;98871.53;5014915;28;20202;-83
2022/09/02 05:41:56;;;;;;;22.20;14.20;;;;;;;23.67;100.00;98744.25;5021899;28;20244;-85
2022/09/02 05:44:22;;;;;;;20.20;14.80;;;;;;;24.40;99.72;98875.56;5018154;28;20183;-85
2022/09/02 05:46:47;;;;;;;22.57;14.77;;;;;;;24.47;99.49;98886.66;5017854;28;20194;-83
2022/09/02 05:49:20;;;;;;;22.60;14.83;;;;;;;23.37;98.57;98682.78;5016657;28;20187;-84
2022/09/02 05:51:56;;;;;;;24.80;16.30;;;;;;;24.53;99.38;98881.38;5018202;28;20214;-84
2022/09/02 05:54:30;;;;;;;23.30;16.77;;;;;;;24.50;99.45;98884.00;5014439;28;20589;-86
2022/09/02 05:57:03;;;;;;;25.00;17.70;;;;;;;24.43;100.00;98879.81;5009296;28;20294;-85
2022/09/02 05:59:30;;;;;;;26.57;17.07;;;;;;;24.54;99.61;98888.22;5001318;28;20214;-84
2022/09/02 06:01:56;;;;;;;23.57;16.73;;;;;;;24.65;98.23;98871.59;5025040;28;20213;-85
2022/09/02 06:04:23;;;;;;;20.60;16.90;;;;;;;24.91;96.75;98868.47;5026094;28;20721;-84
2022/09/02 06:06:49;;;;;;;22.70;16.03;;;;;;;24.33;95.67;98762.75;5018248;28;20190;-85
2022/09/02 06:09:18;;;;;;;24.87;16.40;;;;;;;23.92;94.70;98680.81;5003218;28;20193;-85
2022/09/02 06:11:48;;;;;;;24.17;16.57;;;;;;;24.07;94.76;98705.50;4998046;28;20218;-84
2022/09/02 06:14:16;;;;;;;21.67;16.13;;;;;;;25.13;95.27;98905.94;4994072;28;20205;-84
2022/09/02 06:16:42;;;;;;;22.87;16.30;;;;;;;24.67;96.08;98837.06;4970254;28;20278;-86
2022/09/02 06:19:08;;;;;;;24.07;16.07;;;;;;;24.94;95.31;98867.56;5013125;28;20179;-84
2022/09/02 06:21:36;;;;;;;23.23;16.57;;;;;;;25.12;95.18;98896.47;5013271;28;20705;-85
2022/09/02 06:24:05;;;;;;;22.57;15.37;;;;;;;25.20;94.99;98897.16;5013358;28;20244;-85
2022/09/02 06:26:30;;;;;;;20.00;16.30;;;;;;;24.04;94.29;98696.06;5011878;28;20219;-85
2022/09/02 06:28:56;;;;;;;23.10;16.40;;;;;;;24.27;94.36;98731.81;5013297;28;20186;-85
2022/09/02 06:31:21;;;;;;;24.77;16.47;;;;;;;24.63;94.87;98805.19;5013994;28;20178;-85
2022/09/02 06:33:51;;;;;;;20.60;15.67;;;;;;;25.00;95.35;98903.66;5011877;28;20753;-85
2022/09/02 06:36:18;;;;;;;23.07;16.17;;;;;;;24.98;96.06;98900.25;4991171;28;20175;-87
2022/09/02 06:38:47;;;;;;;23.03;15.97;;;;;;;24.97;95.41;98883.03;5002177;28;20187;-87
2022/09/02 06:41:15;;;;;;;20.90;15.63;;;;;;;24.83;94.81;98849.63;4992945;28;20705;-87
2022/09/02 06:43:41;;;;;;;25.77;16.40;;;;;;;23.49;94.68;98628.31;4975267;28;20199;-88
2022/09/02 06:46:07;;;;;;;29.43;15.63;;;;;;;22.53;94.76;98458.03;4993760;28;20311;-88
2022/09/02 06:48:33;;;;;;;22.53;14.77;;;;;;;24.67;93.22;98761.97;4988883;28;20193;-87
2022/09/02 06:51:00;;;;;;;20.00;14.87;;;;;;;25.59;92.53;98900.56;5011579;28;20186;-88
2022/09/02 06:53:26;;;;;;;19.40;14.17;;;;;;;25.54;92.68;98888.59;4994795;28;20269;-87
2022/09/02 06:55:51;;;;;;;19.97;12.70;;;;;;;24.51;93.27;98751.09;5010169;28;20214;-87
2022/09/02 06:58:17;;;;;;;20.97;13.53;;;;;;;24.14;94.12;98709.69;5013361;28;20187;-87
2022/09/02 07:00:44;;;;;;;19.63;13.40;;;;;;;24.32;93.54;98723.94;4992183;28;20755;-86
2022/09/02 07:06:02;;;;;;;17.23;13.77;;;;;;;24.50;92.91;98754.59;5012714;28;20225;-87
2022/09/02 07:08:28;;;;;;;17.43;13.53;;;;;;;24.53;90.25;98695.00;4995742;28;20245;-86
2022/09/02 07:10:54;;;;;;;18.90;13.90;;;;;;;24.86;87.89;98683.84;5011188;28;20194;-86
2022/09/02 07:13:19;;;;;;;19.03;13.03;;;;;;;26.51;87.02;98910.22;4996952;28;20186;-87
2022/09/02 07:15:45;;;;;;;17.70;13.55;;;;;;;27.04;83.75;98890.50;4996272;28;20624;-87
2022/09/02 07:18:10;;;;;;;18.30;13.15;;;;;;;25.80;83.05;98691.69;4985395;28;20701;-87
2022/09/02 07:20:36;;;;;;;20.70;13.38;;;;;;;26.12;84.23;98823.09;5001069;28;20235;-87
2022/09/02 07:23:03;;;;;;;20.75;14.20;;;;;;;25.64;85.00;98771.66;5010966;28;20201;-87
2022/09/02 07:25:28;;;;;;;20.45;14.45;;;;;;;25.34;85.34;98748.25;4975218;28;20283;-87
2022/09/02 07:27:55;;;;;;;18.38;14.35;;;;;;;25.22;86.16;98750.25;5001247;28;20274;-88
2022/09/02 07:30:20;;;;;;;21.35;15.52;;;;;;;26.45;85.47;98930.34;4995186;28;20307;-89
2022/09/02 07:32:46;;;;;;;18.25;14.82;;;;;;;25.04;86.07;98750.72;4994243;28;20800;-87
2022/09/02 07:35:12;;;;;;;21.13;14.65;;;;;;;24.93;87.05;98747.56;4991172;28;20216;-87
2022/09/02 07:37:37;;;;;;;18.65;15.20;;;;;;;26.37;85.93;98933.97;4997824;28;20184;-89
2022/09/02 07:40:05;;;;;;;18.83;14.63;;;;;;;25.13;86.58;98732.34;4994423;28;20223;-88
2022/09/02 07:42:31;;;;;;;18.23;15.00;;;;;;;25.34;85.27;98738.72;5016007;28;20271;-87
2022/09/02 07:45:01;;;;;;;27.17;15.30;;;;;;;24.79;84.96;98651.22;5000180;28;20244;-88
2022/09/02 07:47:33;;;;;;;20.27;15.13;;;;;;;26.66;84.47;98940.13;4998207;28;20256;-90
2022/09/02 07:49:59;;;;;;;19.90;14.60;;;;;;;24.24;82.84;98493.03;4996708;28;20204;-89
2022/09/02 07:52:25;;;;;;;18.52;14.85;;;;;;;24.85;82.27;98568.22;4977551;28;20172;-87
2022/09/02 07:54:50;;;;;;;19.52;15.40;;;;;;;25.77;83.30;98748.81;4975470;28;20618;-88
2022/09/02 07:57:15;;;;;;;20.63;15.13;;;;;;;26.79;84.15;98936.28;4977777;28;20691;-87
2022/09/02 07:59:42;;;;;;;19.58;15.35;;;;;;;26.71;82.60;98887.13;4992933;28;20530;-87
2022/09/02 08:02:08;;;;;;;22.35;15.80;;;;;;;25.33;81.60;98646.31;4980205;28;20668;-87
2022/09/02 08:04:34;;;;;;;21.65;16.20;;;;;;;24.86;81.35;98558.72;4975888;28;20172;-87
2022/09/02 08:07:00;;;;;;;19.35;15.65;;;;;;;25.78;81.67;98756.56;4993878;28;20184;-88
2022/09/02 08:09:25;;;;;;;20.70;15.38;;;;;;;24.37;82.49;98539.25;4977762;28;20215;-88
2022/09/02 08:11:52;;;;;;;26.10;16.67;;;;;;;26.78;82.86;98939.81;5013940;28;20203;-87
2022/09/02 08:14:24;;;;;;;24.05;17.35;;;;;;;26.14;83.82;98858.50;4995211;28;20254;-88
2022/09/02 08:16:51;;;;;;;22.88;17.48;;;;;;;26.62;83.56;98922.91;5014672;28;20221;-86
2022/09/02 08:19:17;;;;;;;26.15;19.33;;;;;;;26.22;85.08;98949.13;5013322;28;20174;-88
2022/09/02 08:21:44;;;;;;;26.13;19.40;;;;;;;26.36;85.24;98947.00;5012796;28;20197;-86
2022/09/02 08:24:10;;;;;;;26.15;18.98;;;;;;;25.36;84.76;98733.50;5013552;28;20196;-88
2022/09/02 08:26:39;;;;;;;23.23;16.98;;;;;;;26.27;85.27;98953.31;4995512;28;20198;-87
2022/09/02 08:29:06;;;;;;;22.88;17.45;;;;;;;23.01;84.94;98376.22;4975596;28;20186;-86
2022/09/02 08:31:32;;;;;;;24.63;17.17;;;;;;;25.38;84.79;98731.75;4975573;28;20174;-87
2022/09/02 08:33:58;;;;;;;24.85;17.08;;;;;;;25.05;86.40;98692.00;4992773;28;20230;-88
2022/09/02 08:36:25;;;;;;;24.92;17.33;;;;;;;24.47;84.81;98565.75;4996117;28;20560;-85
2022/09/02 08:38:50;;;;;;;24.67;17.85;;;;;;;24.95;84.38;98630.97;4984241;28;20176;-84
2022/09/02 08:41:23;;;;;;;29.95;19.40;;;;;;;27.05;83.01;98925.16;5003823;28;20211;-87
2022/09/02 08:43:51;;;;;;;21.25;17.27;;;;;;;25.50;79.58;98605.25;4998711;28;20178;-87
2022/09/02 08:46:20;;;;;;;26.33;19.67;;;;;;;26.14;78.74;98670.81;5005506;28;20252;-88
2022/09/02 08:48:46;;;;;;;28.08;20.38;;;;;;;27.14;79.52;98899.72;5020094;28;20235;-87
2022/09/02 08:51:45;;;;;;;25.77;20.77;;;;;;;24.89;82.80;98637.16;4998412;28;20632;-87
2022/09/02 08:54:25;;;;;;;28.52;20.77;;;;;;;26.20;84.94;98899.00;4959225;28;20191;-87
2022/09/02 08:56:51;;;;;;;29.80;21.27;;;;;;;24.67;85.10;98624.78;4974914;28;20214;-87
2022/09/02 08:59:25;;;;;;;27.85;20.23;;;;;;;25.04;86.85;98734.34;4957253;28;20322;-88
2022/09/02 09:02:02;;;;;;;27.38;20.17;;;;;;;25.42;90.14;98892.31;4958012;28;20337;-87
2022/09/02 09:04:50;;;;;;;29.23;20.85;;;;;;;25.53;91.01;98905.91;4958052;28;20335;-88
2022/09/02 09:07:32;;;;;;;29.33;22.00;;;;;;;25.54;90.72;98896.38;4978703;28;20224;-87
2022/09/02 09:09:58;;;;;;;29.92;21.75;;;;;;;25.59;89.55;98894.53;4964261;28;20237;-88
2022/09/02 09:12:42;;;;;;;30.25;22.42;;;;;;;25.43;90.97;98904.38;4940113;29;20232;-89
2022/09/02 09:15:35;;;;;;;27.75;22.10;;;;;;;25.43;91.52;98893.16;4947700;29;20193;-89
2022/09/02 09:18:05;;;;;;;31.13;21.40;;;;;;;24.70;92.98;98811.94;4940608;29;20200;-88
2022/09/02 09:20:37;;;;;;;28.33;21.50;;;;;;;24.46;92.77;98771.06;4964918;28;20207;-88
2022/09/02 09:23:28;;;;;;;30.00;21.67;;;;;;;25.12;94.00;98899.06;4957923;28;20189;-89
2022/09/02 09:26:13;;;;;;;29.10;22.13;;;;;;;24.65;95.73;98857.78;4897608;29;20202;-88
2022/09/02 09:28:46;;;;;;;29.27;22.13;;;;;;;24.39;95.25;98809.16;4880640;29;20210;-88
2022/09/02 09:31:28;;;;;;;25.47;22.73;;;;;;;25.27;95.07;98909.97;4900344;29;20297;-87
2022/09/02 09:34:12;;;;;;;29.37;23.20;;;;;;;25.26;95.73;98905.66;4881385;29;20266;-88
2022/09/02 09:36:40;;;;;;;30.40;22.93;;;;;;;25.05;97.17;98897.47;4881446;29;20299;-88
2022/09/02 09:39:17;;;;;;;33.03;24.83;;;;;;;24.78;100.00;98892.06;4881424;29;20255;-87
2022/09/02 09:41:44;;;;;;;35.23;25.90;;;;;;;24.48;100.00;98872.81;4899163;29;20213;-89
2022/09/02 09:44:10;;;;;;;34.33;24.53;;;;;;;22.12;100.00;98512.94;4915662;29;20694;-88
2022/09/02 09:46:35;;;;;;;34.83;24.70;;;;;;;23.36;100.00;98736.19;4897751;29;20278;-88
2022/09/02 09:49:00;;;;;;;33.73;25.87;;;;;;;23.47;100.00;98726.53;4884883;29;20197;-88
2022/09/02 09:51:26;;;;;;;31.67;23.60;;;;;;;22.68;100.00;98576.50;4912817;29;20574;-88
2022/09/02 09:54:12;;;;;;;37.00;25.77;;;;;;;22.57;100.00;98596.44;4901729;29;20193;-87
2022/09/02 09:56:37;;;;;;;35.73;25.37;;;;;;;23.79;100.00;98824.13;4902433;29;20280;-89
2022/09/02 09:59:06;;;;;;;32.30;23.80;;;;;;;22.23;100.00;98562.59;4916293;29;20195;-88
2022/09/02 10:01:32;;;;;;;29.07;22.83;;;;;;;23.64;100.00;98808.91;4890526;29;20210;-88
2022/09/02 10:04:02;;;;;;;20.97;15.57;;;;;;;24.01;100.00;98889.22;4983576;28;20191;-89
2022/09/02 10:06:31;;;;;;;28.03;18.47;;;;;;;24.08;100.00;98883.94;4979096;28;20193;-88
2022/09/02 10:09:29;;;;;;;24.37;18.07;;;;;;;23.85;100.00;98875.72;4997497;28;20258;-87
2022/09/02 10:12:04;;;;;;;24.03;16.80;;;;;;;22.16;100.00;98656.41;4994787;28;20205;-87
2022/09/02 10:14:46;;;;;;;20.70;15.30;;;;;;;23.53;100.00;98890.94;5013398;28;20266;-87
2022/09/02 10:17:31;;;;;;;25.73;15.73;;;;;;;23.27;100.00;98900.78;4995218;28;20198;-87
2022/09/02 10:20:06;;;;;;;22.83;17.57;;;;;;;23.49;100.00;98909.94;4994010;28;20192;-88
2022/09/02 10:22:55;;;;;;;21.63;18.13;;;;;;;23.49;100.00;98895.31;5012986;28;20189;-88
2022/09/02 10:25:27;;;;;;;20.67;15.97;;;;;;;23.49;100.00;98922.88;4994935;28;20252;-87
2022/09/02 10:28:17;;;;;;;22.20;16.40;;;;;;;23.37;100.00;98917.88;5012451;28;20273;-88
2022/09/02 10:31:08;;;;;;;22.30;16.77;;;;;;;23.30;100.00;98916.25;5011940;28;20183;-87
2022/09/02 10:34:07;;;;;;;18.10;14.57;;;;;;;23.57;100.00;98918.44;5009705;28;20230;-88
2022/09/02 10:36:41;;;;;;;19.37;14.03;;;;;;;22.64;100.00;98737.38;4998632;28;20214;-88
2022/09/02 10:39:44;;;;;;;17.27;13.13;;;;;;;23.95;99.40;98895.38;5013318;28;20175;-86
2022/09/02 10:42:43;;;;;;;21.10;14.53;;;;;;;24.23;100.00;98907.84;4992839;28;20215;-87
2022/09/02 10:45:36;;;;;;;21.70;15.50;;;;;;;24.18;100.00;98904.47;4935883;29;20267;-87
2022/09/02 10:48:39;;;;;;;20.47;12.10;;;;;;;23.31;95.52;98743.16;4935975;29;20712;-91
2022/09/02 10:51:32;;;;;;;15.23;12.27;;;;;;;24.63;95.03;98916.53;4917887;29;20208;-87
2022/09/02 10:54:13;;;;;;;20.77;14.60;;;;;;;22.41;97.46;98580.38;4915607;29;20798;-87
2022/09/02 10:56:55;;;;;;;20.27;13.87;;;;;;;23.25;95.81;98739.81;4915116;29;20194;-87
2022/09/02 10:59:42;;;;;;;15.83;12.50;;;;;;;24.40;95.92;98879.88;4893960;29;20197;-87
2022/09/02 11:02:41;;;;;;;17.13;12.80;;;;;;;25.02;96.06;98913.13;4898531;29;20216;-88
2022/09/02 11:05:15;;;;;;;17.60;13.47;;;;;;;25.12;98.21;98914.63;4895961;29;20335;-86
2022/09/02 11:07:51;;;;;;;16.53;12.63;;;;;;;23.84;94.79;98708.53;4894756;29;20196;-86
2022/09/02 11:10:23;;;;;;;13.30;11.30;;;;;;;24.88;92.01;98896.16;4876349;29;20765;-87
2022/09/02 11:12:58;;;;;;;15.60;12.73;;;;;;;25.21;93.47;98909.22;4917139;29;20193;-87
2022/09/02 11:15:39;;;;;;;15.43;12.23;;;;;;;25.47;89.59;98921.59;4917481;29;20193;-88
2022/09/02 11:18:12;;;;;;;17.43;13.17;;;;;;;25.37;90.85;98914.03;4916077;29;20267;-87
2022/09/02 11:20:53;;;;;;;17.70;11.60;;;;;;;24.36;90.07;98754.91;4905005;29;20217;-86
2022/09/02 11:23:44;;;;;;;16.35;12.02;;;;;;;25.34;90.98;98940.88;4936414;29;20195;-87
2022/09/02 11:26:31;;;;;;;16.00;12.43;;;;;;;25.06;90.90;98911.28;4953344;29;20247;-86